sensor_id;sensor_type;location;lat;lon;timestamp;P1;durP1;ratioP1;P2;durP2;ratioP2
45784;SDS011;31489;51.404;5.474;2022-07-29T00:02:06;2.85;;;1.50;;
45784;SDS011;31489;51.404;5.474;2022-07-29T00:04:34;3.38;;;1.42;;
45784;SDS011;31489;51.404;5.474;2022-07-29T00:07:00;4.28;;;1.42;;
45784;SDS011;31489;51.404;5.474;2022-07-29T00:09:26;2.72;;;1.30;;
45784;SDS011;31489;51.404;5.474;2022-07-29T00:11:51;2.28;;;1.23;;
45784;SDS011;31489;51.404;5.474;2022-07-29T00:14:17;2.63;;;1.30;;
45784;SDS011;31489;51.404;5.474;2022-07-29T00:16:43;3.70;;;1.40;;
45784;SDS011;31489;51.404;5.474;2022-07-29T00:19:08;5.47;;;1.50;;
45784;SDS011;31489;51.404;5.474;2022-07-29T00:21:34;8.00;;;1.42;;
45784;SDS011;31489;51.404;5.474;2022-07-29T00:23:59;3.72;;;1.42;;
45784;SDS011;31489;51.404;5.474;2022-07-29T00:26:25;2.83;;;1.30;;
45784;SDS011;31489;51.404;5.474;2022-07-29T00:28:52;5.22;;;1.67;;
45784;SDS011;31489;51.404;5.474;2022-07-29T00:31:18;3.35;;;1.52;;
45784;SDS011;31489;51.404;5.474;2022-07-29T00:33:43;4.28;;;1.40;;
45784;SDS011;31489;51.404;5.474;2022-07-29T00:36:09;2.50;;;1.20;;
45784;SDS011;31489;51.404;5.474;2022-07-29T00:38:34;4.93;;;1.20;;
45784;SDS011;31489;51.404;5.474;2022-07-29T00:41:00;3.63;;;1.17;;
45784;SDS011;31489;51.404;5.474;2022-07-29T00:43:26;4.47;;;1.35;;
45784;SDS011;31489;51.404;5.474;2022-07-29T00:45:52;6.70;;;1.40;;
45784;SDS011;31489;51.404;5.474;2022-07-29T00:48:17;6.15;;;1.63;;
45784;SDS011;31489;51.404;5.474;2022-07-29T00:50:43;5.45;;;2.33;;
45784;SDS011;31489;51.404;5.474;2022-07-29T00:53:08;7.32;;;1.98;;
45784;SDS011;31489;51.404;5.474;2022-07-29T00:55:36;4.40;;;1.80;;
45784;SDS011;31489;51.404;5.474;2022-07-29T00:58:02;4.68;;;1.83;;
45784;SDS011;31489;51.404;5.474;2022-07-29T01:00:28;3.80;;;1.52;;
45784;SDS011;31489;51.404;5.474;2022-07-29T01:02:54;2.53;;;1.50;;
45784;SDS011;31489;51.404;5.474;2022-07-29T01:05:20;4.43;;;1.63;;
45784;SDS011;31489;51.404;5.474;2022-07-29T01:07:49;4.30;;;1.80;;
45784;SDS011;31489;51.404;5.474;2022-07-29T01:10:17;3.13;;;1.77;;
45784;SDS011;31489;51.404;5.474;2022-07-29T01:12:44;6.72;;;1.80;;
45784;SDS011;31489;51.404;5.474;2022-07-29T01:15:12;4.97;;;1.70;;
45784;SDS011;31489;51.404;5.474;2022-07-29T01:17:41;4.80;;;1.73;;
45784;SDS011;31489;51.404;5.474;2022-07-29T01:23:30;3.90;;;1.73;;
45784;SDS011;31489;51.404;5.474;2022-07-29T01:29:00;6.63;;;1.38;;
45784;SDS011;31489;51.404;5.474;2022-07-29T01:31:38;2.20;;;1.40;;
45784;SDS011;31489;51.404;5.474;2022-07-29T01:39:57;3.75;;;1.65;;
45784;SDS011;31489;51.404;5.474;2022-07-29T01:42:42;4.65;;;1.70;;
45784;SDS011;31489;51.404;5.474;2022-07-29T01:45:13;4.68;;;1.58;;
45784;SDS011;31489;51.404;5.474;2022-07-29T01:47:43;3.00;;;1.60;;
45784;SDS011;31489;51.404;5.474;2022-07-29T01:50:14;3.75;;;1.70;;
45784;SDS011;31489;51.404;5.474;2022-07-29T01:52:43;4.00;;;1.88;;
45784;SDS011;31489;51.404;5.474;2022-07-29T01:55:15;3.63;;;1.80;;
45784;SDS011;31489;51.404;5.474;2022-07-29T01:57:43;5.72;;;1.70;;
45784;SDS011;31489;51.404;5.474;2022-07-29T02:00:11;4.10;;;2.00;;
45784;SDS011;31489;51.404;5.474;2022-07-29T02:02:38;6.43;;;2.05;;
45784;SDS011;31489;51.404;5.474;2022-07-29T02:05:06;3.22;;;1.50;;
45784;SDS011;31489;51.404;5.474;2022-07-29T02:07:35;4.22;;;1.63;;
45784;SDS011;31489;51.404;5.474;2022-07-29T02:10:03;3.60;;;1.60;;
45784;SDS011;31489;51.404;5.474;2022-07-29T02:12:31;3.45;;;1.80;;
45784;SDS011;31489;51.404;5.474;2022-07-29T02:14:59;4.53;;;1.70;;
45784;SDS011;31489;51.404;5.474;2022-07-29T02:17:27;3.05;;;1.70;;
45784;SDS011;31489;51.404;5.474;2022-07-29T02:19:59;4.78;;;2.05;;
45784;SDS011;31489;51.404;5.474;2022-07-29T02:22:26;3.55;;;1.80;;
45784;SDS011;31489;51.404;5.474;2022-07-29T02:24:56;5.78;;;1.90;;
45784;SDS011;31489;51.404;5.474;2022-07-29T02:27:22;4.00;;;1.75;;
45784;SDS011;31489;51.404;5.474;2022-07-29T02:29:50;2.88;;;1.88;;
45784;SDS011;31489;51.404;5.474;2022-07-29T02:32:18;3.30;;;1.95;;
45784;SDS011;31489;51.404;5.474;2022-07-29T02:34:44;4.70;;;1.83;;
45784;SDS011;31489;51.404;5.474;2022-07-29T02:37:12;4.05;;;1.98;;
45784;SDS011;31489;51.404;5.474;2022-07-29T02:39:41;3.35;;;2.10;;
45784;SDS011;31489;51.404;5.474;2022-07-29T02:42:10;3.08;;;1.80;;
45784;SDS011;31489;51.404;5.474;2022-07-29T02:44:38;2.97;;;1.95;;
45784;SDS011;31489;51.404;5.474;2022-07-29T02:47:13;2.53;;;1.70;;
45784;SDS011;31489;51.404;5.474;2022-07-29T02:52:52;2.90;;;1.80;;
45784;SDS011;31489;51.404;5.474;2022-07-29T02:58:12;6.97;;;2.00;;
45784;SDS011;31489;51.404;5.474;2022-07-29T03:00:39;2.85;;;1.88;;
45784;SDS011;31489;51.404;5.474;2022-07-29T03:03:07;3.35;;;1.70;;
45784;SDS011;31489;51.404;5.474;2022-07-29T03:05:37;2.83;;;1.85;;
45784;SDS011;31489;51.404;5.474;2022-07-29T03:08:04;3.47;;;2.05;;
45784;SDS011;31489;51.404;5.474;2022-07-29T03:10:32;3.40;;;1.58;;
45784;SDS011;31489;51.404;5.474;2022-07-29T03:12:59;4.80;;;2.10;;
45784;SDS011;31489;51.404;5.474;2022-07-29T03:15:26;4.60;;;2.00;;
45784;SDS011;31489;51.404;5.474;2022-07-29T03:17:52;4.57;;;1.85;;
45784;SDS011;31489;51.404;5.474;2022-07-29T03:20:19;5.07;;;2.13;;
45784;SDS011;31489;51.404;5.474;2022-07-29T03:22:45;3.38;;;1.80;;
45784;SDS011;31489;51.404;5.474;2022-07-29T03:25:15;3.88;;;2.15;;
45784;SDS011;31489;51.404;5.474;2022-07-29T03:27:42;3.58;;;1.77;;
45784;SDS011;31489;51.404;5.474;2022-07-29T03:30:08;4.10;;;2.05;;
45784;SDS011;31489;51.404;5.474;2022-07-29T03:32:35;3.08;;;1.70;;
45784;SDS011;31489;51.404;5.474;2022-07-29T03:35:01;2.85;;;1.83;;
45784;SDS011;31489;51.404;5.474;2022-07-29T03:37:27;3.47;;;1.92;;
45784;SDS011;31489;51.404;5.474;2022-07-29T03:39:55;2.78;;;1.75;;
45784;SDS011;31489;51.404;5.474;2022-07-29T03:42:23;2.72;;;1.88;;
45784;SDS011;31489;51.404;5.474;2022-07-29T03:44:53;3.88;;;2.22;;
45784;SDS011;31489;51.404;5.474;2022-07-29T03:47:20;4.57;;;2.38;;
45784;SDS011;31489;51.404;5.474;2022-07-29T03:49:51;3.90;;;1.90;;
45784;SDS011;31489;51.404;5.474;2022-07-29T03:52:18;4.00;;;2.40;;
45784;SDS011;31489;51.404;5.474;2022-07-29T03:54:45;4.40;;;2.00;;
45784;SDS011;31489;51.404;5.474;2022-07-29T03:57:11;6.63;;;2.10;;
45784;SDS011;31489;51.404;5.474;2022-07-29T03:59:39;4.57;;;2.50;;
45784;SDS011;31489;51.404;5.474;2022-07-29T04:02:06;3.33;;;2.28;;
45784;SDS011;31489;51.404;5.474;2022-07-29T04:04:35;4.38;;;2.50;;
45784;SDS011;31489;51.404;5.474;2022-07-29T04:07:01;2.88;;;1.88;;
45784;SDS011;31489;51.404;5.474;2022-07-29T04:09:27;4.20;;;1.95;;
45784;SDS011;31489;51.404;5.474;2022-07-29T04:11:53;2.92;;;2.15;;
45784;SDS011;31489;51.404;5.474;2022-07-29T04:14:18;4.13;;;2.30;;
45784;SDS011;31489;51.404;5.474;2022-07-29T04:16:45;3.70;;;1.75;;
45784;SDS011;31489;51.404;5.474;2022-07-29T04:19:11;3.22;;;1.98;;
45784;SDS011;31489;51.404;5.474;2022-07-29T04:21:38;3.50;;;2.10;;
45784;SDS011;31489;51.404;5.474;2022-07-29T04:24:04;4.25;;;2.20;;
45784;SDS011;31489;51.404;5.474;2022-07-29T04:26:30;2.85;;;2.25;;
45784;SDS011;31489;51.404;5.474;2022-07-29T04:28:55;3.45;;;2.20;;
45784;SDS011;31489;51.404;5.474;2022-07-29T04:31:21;2.97;;;2.05;;
45784;SDS011;31489;51.404;5.474;2022-07-29T04:33:47;6.78;;;2.13;;
45784;SDS011;31489;51.404;5.474;2022-07-29T04:36:12;4.32;;;2.28;;
45784;SDS011;31489;51.404;5.474;2022-07-29T04:38:38;4.18;;;2.30;;
45784;SDS011;31489;51.404;5.474;2022-07-29T04:41:04;3.63;;;2.45;;
45784;SDS011;31489;51.404;5.474;2022-07-29T04:43:31;3.17;;;2.50;;
45784;SDS011;31489;51.404;5.474;2022-07-29T04:45:58;6.10;;;2.45;;
45784;SDS011;31489;51.404;5.474;2022-07-29T04:48:23;3.75;;;2.25;;
45784;SDS011;31489;51.404;5.474;2022-07-29T04:50:49;3.17;;;2.20;;
45784;SDS011;31489;51.404;5.474;2022-07-29T04:53:14;5.15;;;2.30;;
45784;SDS011;31489;51.404;5.474;2022-07-29T04:55:40;5.00;;;2.40;;
45784;SDS011;31489;51.404;5.474;2022-07-29T04:58:06;4.70;;;2.50;;
45784;SDS011;31489;51.404;5.474;2022-07-29T05:00:32;5.32;;;2.45;;
45784;SDS011;31489;51.404;5.474;2022-07-29T05:02:58;3.75;;;2.25;;
45784;SDS011;31489;51.404;5.474;2022-07-29T05:05:23;4.05;;;2.75;;
45784;SDS011;31489;51.404;5.474;2022-07-29T05:07:49;2.78;;;2.47;;
45784;SDS011;31489;51.404;5.474;2022-07-29T05:10:14;3.95;;;2.42;;
45784;SDS011;31489;51.404;5.474;2022-07-29T05:12:40;4.68;;;2.80;;
45784;SDS011;31489;51.404;5.474;2022-07-29T05:15:06;3.90;;;2.67;;
45784;SDS011;31489;51.404;5.474;2022-07-29T05:17:32;3.20;;;2.47;;
45784;SDS011;31489;51.404;5.474;2022-07-29T05:19:57;4.22;;;2.78;;
45784;SDS011;31489;51.404;5.474;2022-07-29T05:22:23;6.93;;;2.92;;
45784;SDS011;31489;51.404;5.474;2022-07-29T05:24:48;2.85;;;2.40;;
45784;SDS011;31489;51.404;5.474;2022-07-29T05:27:14;3.20;;;2.25;;
45784;SDS011;31489;51.404;5.474;2022-07-29T05:29:39;2.58;;;2.38;;
45784;SDS011;31489;51.404;5.474;2022-07-29T05:32:05;6.40;;;2.50;;
45784;SDS011;31489;51.404;5.474;2022-07-29T05:34:31;4.75;;;2.58;;
45784;SDS011;31489;51.404;5.474;2022-07-29T05:36:57;4.20;;;2.53;;
45784;SDS011;31489;51.404;5.474;2022-07-29T05:39:22;2.88;;;2.58;;
45784;SDS011;31489;51.404;5.474;2022-07-29T05:41:48;3.08;;;2.45;;
45784;SDS011;31489;51.404;5.474;2022-07-29T05:44:14;4.60;;;2.20;;
45784;SDS011;31489;51.404;5.474;2022-07-29T05:46:40;4.93;;;2.28;;
45784;SDS011;31489;51.404;5.474;2022-07-29T05:49:06;4.78;;;2.65;;
45784;SDS011;31489;51.404;5.474;2022-07-29T05:51:32;3.85;;;2.50;;
45784;SDS011;31489;51.404;5.474;2022-07-29T05:53:58;4.45;;;2.50;;
45784;SDS011;31489;51.404;5.474;2022-07-29T05:56:24;4.85;;;2.50;;
45784;SDS011;31489;51.404;5.474;2022-07-29T05:58:50;5.75;;;2.75;;
45784;SDS011;31489;51.404;5.474;2022-07-29T06:01:16;4.68;;;2.85;;
45784;SDS011;31489;51.404;5.474;2022-07-29T06:03:42;3.30;;;2.35;;
45784;SDS011;31489;51.404;5.474;2022-07-29T06:06:08;2.65;;;2.25;;
45784;SDS011;31489;51.404;5.474;2022-07-29T06:08:33;3.88;;;2.10;;
45784;SDS011;31489;51.404;5.474;2022-07-29T06:11:00;5.30;;;2.38;;
45784;SDS011;31489;51.404;5.474;2022-07-29T06:13:26;4.22;;;2.20;;
45784;SDS011;31489;51.404;5.474;2022-07-29T06:15:52;4.95;;;2.80;;
45784;SDS011;31489;51.404;5.474;2022-07-29T06:18:18;6.22;;;2.78;;
45784;SDS011;31489;51.404;5.474;2022-07-29T06:20:45;6.65;;;2.67;;
45784;SDS011;31489;51.404;5.474;2022-07-29T06:23:11;4.65;;;2.60;;
45784;SDS011;31489;51.404;5.474;2022-07-29T06:25:37;3.53;;;2.60;;
45784;SDS011;31489;51.404;5.474;2022-07-29T06:28:05;4.15;;;2.45;;
45784;SDS011;31489;51.404;5.474;2022-07-29T06:30:30;2.95;;;2.45;;
45784;SDS011;31489;51.404;5.474;2022-07-29T06:32:56;5.88;;;3.08;;
45784;SDS011;31489;51.404;5.474;2022-07-29T06:35:21;4.85;;;3.13;;
45784;SDS011;31489;51.404;5.474;2022-07-29T06:37:47;3.22;;;2.63;;
45784;SDS011;31489;51.404;5.474;2022-07-29T06:40:12;4.47;;;2.75;;
45784;SDS011;31489;51.404;5.474;2022-07-29T06:42:56;4.13;;;2.70;;
45784;SDS011;31489;51.404;5.474;2022-07-29T06:45:22;4.45;;;2.28;;
45784;SDS011;31489;51.404;5.474;2022-07-29T06:47:49;4.30;;;2.85;;
45784;SDS011;31489;51.404;5.474;2022-07-29T06:50:14;6.70;;;2.53;;
45784;SDS011;31489;51.404;5.474;2022-07-29T06:52:40;4.82;;;3.00;;
45784;SDS011;31489;51.404;5.474;2022-07-29T06:55:06;4.07;;;2.78;;
45784;SDS011;31489;51.404;5.474;2022-07-29T06:57:33;5.38;;;2.75;;
45784;SDS011;31489;51.404;5.474;2022-07-29T06:59:58;5.55;;;2.83;;
45784;SDS011;31489;51.404;5.474;2022-07-29T07:02:24;5.05;;;2.63;;
45784;SDS011;31489;51.404;5.474;2022-07-29T07:04:50;3.53;;;2.65;;
45784;SDS011;31489;51.404;5.474;2022-07-29T07:07:16;5.55;;;3.10;;
45784;SDS011;31489;51.404;5.474;2022-07-29T07:09:42;6.32;;;2.83;;
45784;SDS011;31489;51.404;5.474;2022-07-29T07:12:08;3.50;;;2.80;;
45784;SDS011;31489;51.404;5.474;2022-07-29T07:14:34;4.90;;;3.28;;
45784;SDS011;31489;51.404;5.474;2022-07-29T07:16:59;5.07;;;3.25;;
45784;SDS011;31489;51.404;5.474;2022-07-29T07:19:25;4.85;;;2.75;;
45784;SDS011;31489;51.404;5.474;2022-07-29T07:21:52;4.72;;;2.63;;
45784;SDS011;31489;51.404;5.474;2022-07-29T07:24:18;7.50;;;3.05;;
45784;SDS011;31489;51.404;5.474;2022-07-29T07:26:43;6.18;;;2.90;;
45784;SDS011;31489;51.404;5.474;2022-07-29T07:29:09;4.60;;;2.72;;
45784;SDS011;31489;51.404;5.474;2022-07-29T07:31:36;4.18;;;2.45;;
45784;SDS011;31489;51.404;5.474;2022-07-29T07:34:02;6.07;;;3.25;;
45784;SDS011;31489;51.404;5.474;2022-07-29T07:36:31;7.18;;;2.33;;
45784;SDS011;31489;51.404;5.474;2022-07-29T07:38:56;5.40;;;2.67;;
45784;SDS011;31489;51.404;5.474;2022-07-29T07:41:22;3.30;;;2.38;;
45784;SDS011;31489;51.404;5.474;2022-07-29T07:43:48;4.80;;;2.80;;
45784;SDS011;31489;51.404;5.474;2022-07-29T07:46:14;3.10;;;2.60;;
45784;SDS011;31489;51.404;5.474;2022-07-29T07:48:40;4.90;;;2.58;;
45784;SDS011;31489;51.404;5.474;2022-07-29T07:51:05;5.50;;;2.45;;
45784;SDS011;31489;51.404;5.474;2022-07-29T07:53:32;3.85;;;2.38;;
45784;SDS011;31489;51.404;5.474;2022-07-29T07:55:57;5.53;;;2.80;;
45784;SDS011;31489;51.404;5.474;2022-07-29T07:58:23;7.90;;;2.80;;
45784;SDS011;31489;51.404;5.474;2022-07-29T08:00:49;5.25;;;2.58;;
45784;SDS011;31489;51.404;5.474;2022-07-29T08:03:14;5.75;;;2.65;;
45784;SDS011;31489;51.404;5.474;2022-07-29T08:05:40;3.40;;;2.40;;
45784;SDS011;31489;51.404;5.474;2022-07-29T08:08:06;4.90;;;2.92;;
45784;SDS011;31489;51.404;5.474;2022-07-29T08:10:32;6.32;;;3.28;;
45784;SDS011;31489;51.404;5.474;2022-07-29T08:13:17;6.68;;;2.85;;
45784;SDS011;31489;51.404;5.474;2022-07-29T08:15:44;6.53;;;2.97;;
45784;SDS011;31489;51.404;5.474;2022-07-29T08:18:10;4.32;;;2.80;;
45784;SDS011;31489;51.404;5.474;2022-07-29T08:20:37;3.83;;;2.60;;
45784;SDS011;31489;51.404;5.474;2022-07-29T08:23:04;5.43;;;3.10;;
45784;SDS011;31489;51.404;5.474;2022-07-29T08:25:33;7.30;;;3.10;;
45784;SDS011;31489;51.404;5.474;2022-07-29T08:28:03;7.10;;;3.08;;
45784;SDS011;31489;51.404;5.474;2022-07-29T08:30:30;4.65;;;3.42;;
45784;SDS011;31489;51.404;5.474;2022-07-29T08:32:57;5.05;;;2.70;;
45784;SDS011;31489;51.404;5.474;2022-07-29T08:35:23;3.80;;;2.70;;
45784;SDS011;31489;51.404;5.474;2022-07-29T08:37:50;5.57;;;3.05;;
45784;SDS011;31489;51.404;5.474;2022-07-29T08:40:16;3.10;;;2.17;;
45784;SDS011;31489;51.404;5.474;2022-07-29T08:42:42;5.35;;;3.10;;
45784;SDS011;31489;51.404;5.474;2022-07-29T08:45:08;4.03;;;2.40;;
45784;SDS011;31489;51.404;5.474;2022-07-29T08:47:34;6.45;;;2.70;;
45784;SDS011;31489;51.404;5.474;2022-07-29T08:50:04;5.05;;;2.70;;
45784;SDS011;31489;51.404;5.474;2022-07-29T08:52:31;5.60;;;3.10;;
45784;SDS011;31489;51.404;5.474;2022-07-29T08:55:00;3.45;;;3.05;;
45784;SDS011;31489;51.404;5.474;2022-07-29T08:57:27;4.03;;;2.33;;
45784;SDS011;31489;51.404;5.474;2022-07-29T08:59:53;6.20;;;2.53;;
45784;SDS011;31489;51.404;5.474;2022-07-29T09:02:20;7.15;;;3.20;;
45784;SDS011;31489;51.404;5.474;2022-07-29T09:04:46;7.57;;;2.28;;
45784;SDS011;31489;51.404;5.474;2022-07-29T09:07:16;5.45;;;2.47;;
45784;SDS011;31489;51.404;5.474;2022-07-29T09:09:42;7.53;;;2.97;;
45784;SDS011;31489;51.404;5.474;2022-07-29T09:12:09;4.18;;;2.60;;
45784;SDS011;31489;51.404;5.474;2022-07-29T09:14:36;8.43;;;2.42;;
45784;SDS011;31489;51.404;5.474;2022-07-29T09:17:03;4.30;;;2.75;;
45784;SDS011;31489;51.404;5.474;2022-07-29T09:19:31;4.20;;;2.80;;
45784;SDS011;31489;51.404;5.474;2022-07-29T09:22:02;3.33;;;2.22;;
45784;SDS011;31489;51.404;5.474;2022-07-29T09:27:09;7.47;;;2.63;;
45784;SDS011;31489;51.404;5.474;2022-07-29T09:29:42;4.28;;;2.70;;
45784;SDS011;31489;51.404;5.474;2022-07-29T09:32:08;4.35;;;2.58;;
45784;SDS011;31489;51.404;5.474;2022-07-29T09:34:35;4.55;;;2.00;;
45784;SDS011;31489;51.404;5.474;2022-07-29T09:37:02;4.03;;;2.33;;
45784;SDS011;31489;51.404;5.474;2022-07-29T09:39:38;2.92;;;1.90;;
45784;SDS011;31489;51.404;5.474;2022-07-29T09:42:10;5.32;;;2.33;;
45784;SDS011;31489;51.404;5.474;2022-07-29T09:44:44;5.50;;;2.47;;
45784;SDS011;31489;51.404;5.474;2022-07-29T09:47:15;4.10;;;2.10;;
45784;SDS011;31489;51.404;5.474;2022-07-29T09:49:55;9.07;;;1.90;;
45784;SDS011;31489;51.404;5.474;2022-07-29T09:52:25;4.05;;;2.22;;
45784;SDS011;31489;51.404;5.474;2022-07-29T09:55:04;3.78;;;2.28;;
45784;SDS011;31489;51.404;5.474;2022-07-29T09:57:31;4.75;;;2.75;;
45784;SDS011;31489;51.404;5.474;2022-07-29T09:59:57;5.38;;;2.65;;
45784;SDS011;31489;51.404;5.474;2022-07-29T10:02:28;2.45;;;2.25;;
45784;SDS011;31489;51.404;5.474;2022-07-29T10:04:55;5.75;;;2.35;;
45784;SDS011;31489;51.404;5.474;2022-07-29T10:07:21;4.75;;;2.50;;
45784;SDS011;31489;51.404;5.474;2022-07-29T10:09:54;5.28;;;2.08;;
45784;SDS011;31489;51.404;5.474;2022-07-29T10:12:21;5.35;;;2.40;;
45784;SDS011;31489;51.404;5.474;2022-07-29T10:14:47;4.53;;;2.78;;
45784;SDS011;31489;51.404;5.474;2022-07-29T10:17:14;8.70;;;2.80;;
45784;SDS011;31489;51.404;5.474;2022-07-29T10:19:41;4.97;;;2.47;;
45784;SDS011;31489;51.404;5.474;2022-07-29T10:22:08;3.78;;;2.10;;
45784;SDS011;31489;51.404;5.474;2022-07-29T10:24:34;3.40;;;1.83;;
45784;SDS011;31489;51.404;5.474;2022-07-29T10:27:03;3.97;;;2.05;;
45784;SDS011;31489;51.404;5.474;2022-07-29T10:29:30;6.05;;;2.00;;
45784;SDS011;31489;51.404;5.474;2022-07-29T10:43:22;6.25;;;3.03;;
45784;SDS011;31489;51.404;5.474;2022-07-29T10:45:55;5.60;;;2.95;;
45784;SDS011;31489;51.404;5.474;2022-07-29T10:48:23;4.45;;;2.40;;
45784;SDS011;31489;51.404;5.474;2022-07-29T10:51:06;5.65;;;2.83;;
45784;SDS011;31489;51.404;5.474;2022-07-29T10:53:47;4.63;;;2.55;;
45784;SDS011;31489;51.404;5.474;2022-07-29T10:56:26;7.32;;;2.35;;
45784;SDS011;31489;51.404;5.474;2022-07-29T11:01:43;2.60;;;1.75;;
45784;SDS011;31489;51.404;5.474;2022-07-29T11:04:09;5.28;;;2.28;;
45784;SDS011;31489;51.404;5.474;2022-07-29T11:09:25;4.20;;;2.10;;
45784;SDS011;31489;51.404;5.474;2022-07-29T11:11:50;2.80;;;1.80;;
45784;SDS011;31489;51.404;5.474;2022-07-29T11:14:17;4.57;;;1.83;;
45784;SDS011;31489;51.404;5.474;2022-07-29T11:19:29;4.43;;;1.80;;
45784;SDS011;31489;51.404;5.474;2022-07-29T11:21:55;3.53;;;1.90;;
45784;SDS011;31489;51.404;5.474;2022-07-29T11:24:22;7.72;;;2.10;;
45784;SDS011;31489;51.404;5.474;2022-07-29T11:29:47;2.90;;;2.20;;
45784;SDS011;31489;51.404;5.474;2022-07-29T11:32:15;3.42;;;1.98;;
45784;SDS011;31489;51.404;5.474;2022-07-29T11:34:43;3.35;;;1.90;;
45784;SDS011;31489;51.404;5.474;2022-07-29T11:39:36;6.70;;;2.03;;
45784;SDS011;31489;51.404;5.474;2022-07-29T11:47:23;4.55;;;2.03;;
45784;SDS011;31489;51.404;5.474;2022-07-29T11:49:51;5.50;;;1.88;;
45784;SDS011;31489;51.404;5.474;2022-07-29T11:52:17;3.05;;;2.10;;
45784;SDS011;31489;51.404;5.474;2022-07-29T11:54:44;6.80;;;1.73;;
45784;SDS011;31489;51.404;5.474;2022-07-29T11:57:12;4.88;;;1.67;;
45784;SDS011;31489;51.404;5.474;2022-07-29T11:59:40;4.15;;;1.50;;
45784;SDS011;31489;51.404;5.474;2022-07-29T12:02:06;3.85;;;1.83;;
45784;SDS011;31489;51.404;5.474;2022-07-29T12:04:33;8.25;;;1.77;;
45784;SDS011;31489;51.404;5.474;2022-07-29T12:07:12;4.35;;;1.85;;
45784;SDS011;31489;51.404;5.474;2022-07-29T12:09:38;3.78;;;1.90;;
45784;SDS011;31489;51.404;5.474;2022-07-29T12:12:03;4.65;;;1.52;;
45784;SDS011;31489;51.404;5.474;2022-07-29T12:14:31;3.50;;;2.08;;
45784;SDS011;31489;51.404;5.474;2022-07-29T12:16:58;5.45;;;1.92;;
45784;SDS011;31489;51.404;5.474;2022-07-29T12:19:25;5.32;;;1.80;;
45784;SDS011;31489;51.404;5.474;2022-07-29T12:21:52;3.03;;;1.80;;
45784;SDS011;31489;51.404;5.474;2022-07-29T12:24:24;4.85;;;1.55;;
45784;SDS011;31489;51.404;5.474;2022-07-29T12:26:50;2.28;;;1.40;;
45784;SDS011;31489;51.404;5.474;2022-07-29T12:29:21;3.60;;;1.67;;
45784;SDS011;31489;51.404;5.474;2022-07-29T12:31:50;2.92;;;1.42;;
45784;SDS011;31489;51.404;5.474;2022-07-29T12:34:18;3.45;;;1.40;;
45784;SDS011;31489;51.404;5.474;2022-07-29T12:36:47;4.25;;;1.63;;
45784;SDS011;31489;51.404;5.474;2022-07-29T12:39:14;5.03;;;1.63;;
45784;SDS011;31489;51.404;5.474;2022-07-29T12:41:41;5.20;;;1.70;;
45784;SDS011;31489;51.404;5.474;2022-07-29T12:44:06;2.67;;;1.70;;
45784;SDS011;31489;51.404;5.474;2022-07-29T12:46:32;4.47;;;1.40;;
45784;SDS011;31489;51.404;5.474;2022-07-29T12:48:58;7.65;;;1.45;;
45784;SDS011;31489;51.404;5.474;2022-07-29T12:54:03;3.75;;;1.50;;
45784;SDS011;31489;51.404;5.474;2022-07-29T12:56:31;1.83;;;1.50;;
45784;SDS011;31489;51.404;5.474;2022-07-29T12:58:57;4.18;;;1.40;;
45784;SDS011;31489;51.404;5.474;2022-07-29T13:01:23;2.75;;;1.30;;
45784;SDS011;31489;51.404;5.474;2022-07-29T13:03:52;2.50;;;1.80;;
45784;SDS011;31489;51.404;5.474;2022-07-29T13:09:06;3.35;;;1.50;;
45784;SDS011;31489;51.404;5.474;2022-07-29T13:11:38;2.47;;;1.38;;
45784;SDS011;31489;51.404;5.474;2022-07-29T13:14:06;4.57;;;1.20;;
45784;SDS011;31489;51.404;5.474;2022-07-29T13:16:36;5.43;;;1.50;;
45784;SDS011;31489;51.404;5.474;2022-07-29T13:19:31;7.00;;;1.40;;
45784;SDS011;31489;51.404;5.474;2022-07-29T13:21:57;3.30;;;1.65;;
45784;SDS011;31489;51.404;5.474;2022-07-29T13:24:23;4.63;;;1.40;;
45784;SDS011;31489;51.404;5.474;2022-07-29T13:26:49;2.95;;;1.38;;
45784;SDS011;31489;51.404;5.474;2022-07-29T13:29:16;2.40;;;1.30;;
45784;SDS011;31489;51.404;5.474;2022-07-29T13:31:42;2.42;;;1.50;;
45784;SDS011;31489;51.404;5.474;2022-07-29T13:34:07;4.63;;;1.50;;
45784;SDS011;31489;51.404;5.474;2022-07-29T13:36:33;3.60;;;1.40;;
45784;SDS011;31489;51.404;5.474;2022-07-29T13:38:59;2.55;;;1.67;;
45784;SDS011;31489;51.404;5.474;2022-07-29T13:41:26;3.63;;;1.40;;
45784;SDS011;31489;51.404;5.474;2022-07-29T13:43:52;4.75;;;1.15;;
45784;SDS011;31489;51.404;5.474;2022-07-29T13:46:17;4.65;;;1.40;;
45784;SDS011;31489;51.404;5.474;2022-07-29T13:48:43;4.20;;;1.38;;
45784;SDS011;31489;51.404;5.474;2022-07-29T13:51:08;5.10;;;1.50;;
45784;SDS011;31489;51.404;5.474;2022-07-29T13:53:34;3.38;;;1.33;;
45784;SDS011;31489;51.404;5.474;2022-07-29T13:56:00;2.55;;;1.27;;
45784;SDS011;31489;51.404;5.474;2022-07-29T13:58:25;3.83;;;1.63;;
45784;SDS011;31489;51.404;5.474;2022-07-29T14:00:51;4.75;;;1.40;;
45784;SDS011;31489;51.404;5.474;2022-07-29T14:03:16;3.03;;;1.33;;
45784;SDS011;31489;51.404;5.474;2022-07-29T14:05:42;4.78;;;1.50;;
45784;SDS011;31489;51.404;5.474;2022-07-29T14:08:08;2.72;;;1.33;;
45784;SDS011;31489;51.404;5.474;2022-07-29T14:10:33;2.40;;;1.17;;
45784;SDS011;31489;51.404;5.474;2022-07-29T14:12:59;2.60;;;1.30;;
45784;SDS011;31489;51.404;5.474;2022-07-29T14:15:25;3.45;;;1.40;;
45784;SDS011;31489;51.404;5.474;2022-07-29T14:17:50;2.83;;;1.20;;
45784;SDS011;31489;51.404;5.474;2022-07-29T14:20:16;3.40;;;1.40;;
45784;SDS011;31489;51.404;5.474;2022-07-29T14:22:45;3.63;;;1.58;;
45784;SDS011;31489;51.404;5.474;2022-07-29T14:25:10;1.67;;;1.33;;
45784;SDS011;31489;51.404;5.474;2022-07-29T14:27:36;1.92;;;1.40;;
45784;SDS011;31489;51.404;5.474;2022-07-29T14:30:01;2.20;;;1.48;;
45784;SDS011;31489;51.404;5.474;2022-07-29T14:32:27;2.35;;;1.60;;
45784;SDS011;31489;51.404;5.474;2022-07-29T14:34:54;3.33;;;1.73;;
45784;SDS011;31489;51.404;5.474;2022-07-29T14:37:19;2.33;;;1.50;;
45784;SDS011;31489;51.404;5.474;2022-07-29T14:39:45;1.92;;;1.33;;
45784;SDS011;31489;51.404;5.474;2022-07-29T14:42:10;3.05;;;1.58;;
45784;SDS011;31489;51.404;5.474;2022-07-29T14:44:36;4.30;;;1.70;;
45784;SDS011;31489;51.404;5.474;2022-07-29T14:47:01;3.70;;;1.52;;
45784;SDS011;31489;51.404;5.474;2022-07-29T14:49:27;3.10;;;1.50;;
45784;SDS011;31489;51.404;5.474;2022-07-29T14:51:53;2.67;;;1.15;;
45784;SDS011;31489;51.404;5.474;2022-07-29T14:54:18;3.28;;;1.30;;
45784;SDS011;31489;51.404;5.474;2022-07-29T14:56:44;2.25;;;1.15;;
45784;SDS011;31489;51.404;5.474;2022-07-29T14:59:09;1.98;;;1.15;;
45784;SDS011;31489;51.404;5.474;2022-07-29T15:01:35;2.33;;;1.20;;
45784;SDS011;31489;51.404;5.474;2022-07-29T15:04:01;4.35;;;1.35;;
45784;SDS011;31489;51.404;5.474;2022-07-29T15:06:27;2.30;;;1.23;;
45784;SDS011;31489;51.404;5.474;2022-07-29T15:08:53;4.07;;;1.60;;
45784;SDS011;31489;51.404;5.474;2022-07-29T15:11:18;4.63;;;1.17;;
45784;SDS011;31489;51.404;5.474;2022-07-29T15:13:44;7.85;;;1.52;;
45784;SDS011;31489;51.404;5.474;2022-07-29T15:16:09;2.10;;;1.25;;
45784;SDS011;31489;51.404;5.474;2022-07-29T15:18:35;4.75;;;1.58;;
45784;SDS011;31489;51.404;5.474;2022-07-29T15:21:03;5.15;;;1.40;;
45784;SDS011;31489;51.404;5.474;2022-07-29T15:23:31;3.22;;;1.50;;
45784;SDS011;31489;51.404;5.474;2022-07-29T15:25:57;2.67;;;1.20;;
45784;SDS011;31489;51.404;5.474;2022-07-29T15:28:23;3.80;;;1.48;;
45784;SDS011;31489;51.404;5.474;2022-07-29T15:30:48;3.08;;;1.52;;
45784;SDS011;31489;51.404;5.474;2022-07-29T15:33:14;5.43;;;1.58;;
45784;SDS011;31489;51.404;5.474;2022-07-29T15:35:40;2.53;;;1.58;;
45784;SDS011;31489;51.404;5.474;2022-07-29T15:38:05;4.28;;;1.92;;
45784;SDS011;31489;51.404;5.474;2022-07-29T15:40:31;2.75;;;1.63;;
45784;SDS011;31489;51.404;5.474;2022-07-29T15:42:57;5.20;;;1.48;;
45784;SDS011;31489;51.404;5.474;2022-07-29T15:45:25;2.75;;;1.50;;